createdAt,value
2023-01-05T00:01:47.737Z,100716.47
2023-01-05T00:04:54.935Z,100693.38
2023-01-05T00:08:02.097Z,100666.41
2023-01-05T00:11:32.612Z,100709.53
2023-01-05T00:14:58.426Z,100701.28
2023-01-05T00:18:24.152Z,100717.59
2023-01-05T00:21:49.693Z,100728.44
2023-01-05T00:25:12.950Z,100731.41
2023-01-05T00:28:20.324Z,100738.03
2023-01-05T00:31:27.610Z,100710.97
2023-01-05T00:34:34.935Z,100743.84
2023-01-05T00:37:42.353Z,100723.16
2023-01-05T00:40:49.912Z,100744.03
2023-01-05T00:43:57.040Z,100736.28
2023-01-05T00:47:04.232Z,100724.22
2023-01-05T00:50:15.969Z,100728.81
2023-01-05T00:53:23.254Z,100719.56
2023-01-05T00:56:30.420Z,100731.63
2023-01-05T00:59:37.534Z,100742.88
2023-01-05T01:02:45.289Z,100733.72
2023-01-05T01:05:59.521Z,100724.53
2023-01-05T01:09:06.648Z,100727.03
2023-01-05T01:12:13.880Z,100728.75
2023-01-05T01:15:21.173Z,100708.44
2023-01-05T01:18:28.301Z,100750.06
2023-01-05T01:21:35.572Z,100718.47
2023-01-05T01:24:42.794Z,100743.44
2023-01-05T01:27:49.927Z,100712.38
2023-01-05T01:30:58.367Z,100754.00
2023-01-05T01:34:05.748Z,100759.50
2023-01-05T01:37:13.098Z,100750.47
2023-01-05T01:40:20.277Z,100754.19
2023-01-05T01:43:50.741Z,100766.63
2023-01-05T01:46:57.896Z,100780.59
2023-01-05T01:50:11.294Z,100785.44
2023-01-05T01:53:22.749Z,100783.31
2023-01-05T01:56:37.332Z,100779.47
2023-01-05T01:59:44.964Z,100770.13
2023-01-05T02:02:54.661Z,100801.44
2023-01-05T02:06:01.903Z,100781.72
2023-01-05T02:09:09.177Z,100758.50
2023-01-05T02:12:26.277Z,100791.94
2023-01-05T02:15:51.536Z,100786.28
2023-01-05T02:19:27.381Z,100787.81
2023-01-05T02:22:34.484Z,100793.94
2023-01-05T02:26:03.680Z,100811.09
2023-01-05T02:29:33.395Z,100800.97
2023-01-05T02:32:47.680Z,100773.66
2023-01-05T02:36:10.276Z,100804.38
2023-01-05T02:39:21.210Z,100803.81
2023-01-05T02:42:30.849Z,100781.06
2023-01-05T02:45:38.050Z,100776.56
2023-01-05T02:48:48.194Z,100794.63
2023-01-05T02:51:57.149Z,100813.41
2023-01-05T02:55:08.266Z,100791.16
2023-01-05T02:58:31.651Z,100804.75
2023-01-05T03:01:46.707Z,100799.66
2023-01-05T03:04:58.312Z,100804.91
2023-01-05T03:08:10.551Z,100792.66
2023-01-05T03:11:36.161Z,100791.84
2023-01-05T03:14:48.744Z,100804.09
2023-01-05T03:17:59.182Z,100797.81
2023-01-05T03:21:06.545Z,100758.16
2023-01-05T03:24:32.381Z,100799.53
2023-01-05T03:27:58.237Z,100774.94
2023-01-05T03:31:38.666Z,100790.97
2023-01-05T03:35:29.737Z,100826.97
2023-01-05T03:38:42.438Z,100813.41
2023-01-05T03:41:49.705Z,100809.22
2023-01-05T03:44:56.940Z,100788.41
2023-01-05T03:48:04.380Z,100820.19
2023-01-05T03:51:11.559Z,100816.00
2023-01-05T03:54:18.691Z,100824.31
2023-01-05T03:57:25.834Z,100810.78
2023-01-05T04:00:32.980Z,100829.88
2023-01-05T04:03:41.396Z,100837.84
2023-01-05T04:06:48.661Z,100856.06
2023-01-05T04:09:55.824Z,100845.81
2023-01-05T04:13:03.001Z,100829.47
2023-01-05T04:16:10.189Z,100827.66
2023-01-05T04:19:17.456Z,100844.19
2023-01-05T04:22:27.370Z,100833.84
2023-01-05T04:25:34.771Z,100832.97
2023-01-05T04:28:41.962Z,100847.19
2023-01-05T04:31:49.080Z,100805.41
2023-01-05T04:34:56.233Z,100841.22
2023-01-05T04:38:03.425Z,100811.16
2023-01-05T04:41:11.226Z,100844.91
2023-01-05T04:44:18.382Z,100861.09
2023-01-05T04:47:25.512Z,100870.13
2023-01-05T04:50:32.791Z,100845.09
2023-01-05T04:53:40.005Z,100852.16
2023-01-05T04:56:47.163Z,100859.97
2023-01-05T04:59:54.303Z,100865.16
2023-01-05T05:03:02.381Z,100855.72
2023-01-05T05:06:09.839Z,100863.84
2023-01-05T05:09:16.942Z,100877.91
2023-01-05T05:12:24.130Z,100882.69
2023-01-05T05:15:31.284Z,100888.81
2023-01-05T05:18:38.421Z,100859.53
2023-01-05T05:21:45.918Z,100844.31
2023-01-05T05:24:53.104Z,100848.28
2023-01-05T05:28:00.239Z,100890.88
2023-01-05T05:31:07.473Z,100893.84
2023-01-05T05:34:14.797Z,100900.28
2023-01-05T05:37:21.977Z,100882.53
2023-01-05T05:40:29.250Z,100899.44
2023-01-05T05:43:36.510Z,100891.78
2023-01-05T05:46:43.748Z,100888.03
2023-01-05T05:49:51.062Z,100904.19
2023-01-05T05:52:58.287Z,100898.41
2023-01-05T05:56:05.770Z,100913.41
2023-01-05T05:59:13.178Z,100905.56
2023-01-05T06:02:20.485Z,100922.84
2023-01-05T06:05:28.660Z,100920.81
2023-01-05T06:08:35.873Z,100913.34
2023-01-05T06:11:43.013Z,100942.97
2023-01-05T06:14:50.590Z,100914.66
2023-01-05T06:17:57.734Z,100913.69
2023-01-05T06:21:05.139Z,100925.97
2023-01-05T06:24:12.289Z,100928.06
2023-01-05T06:27:19.460Z,100946.09
2023-01-05T06:30:27.337Z,100963.06
2023-01-05T06:33:34.454Z,100959.88
2023-01-05T06:36:41.681Z,100968.97
2023-01-05T06:39:48.927Z,100960.47
2023-01-05T06:42:56.197Z,100956.63
2023-01-05T06:46:03.523Z,100954.16
2023-01-05T06:49:12.167Z,100979.19
2023-01-05T06:52:19.350Z,100969.00
2023-01-05T06:55:26.613Z,100961.56
2023-01-05T06:58:33.794Z,100940.59
2023-01-05T07:01:41.164Z,100962.66
2023-01-05T07:04:48.401Z,100993.84
2023-01-05T07:07:55.685Z,100964.19
2023-01-05T07:11:02.871Z,100998.22
2023-01-05T07:14:10.419Z,101006.63
2023-01-05T07:17:17.707Z,100990.72
2023-01-05T07:20:24.857Z,100963.81
2023-01-05T07:23:32.058Z,101018.63
2023-01-05T07:26:39.382Z,100982.56
2023-01-05T07:29:46.537Z,101011.63
2023-01-05T07:32:57.869Z,101017.94
2023-01-05T07:36:05.561Z,101025.25
2023-01-05T07:39:12.852Z,101025.03
2023-01-05T07:42:20.005Z,101019.25
2023-01-05T07:45:27.267Z,101032.16
2023-01-05T07:48:34.512Z,101027.28
2023-01-05T07:51:41.718Z,101040.97
2023-01-05T07:54:48.865Z,101038.72
2023-01-05T07:57:56.008Z,101055.56
2023-01-05T08:01:05.195Z,101014.59
2023-01-05T08:04:12.452Z,101027.59
2023-01-05T08:07:19.740Z,101041.34
2023-01-05T08:10:29.895Z,101043.28
2023-01-05T08:13:55.691Z,101067.25
2023-01-05T08:17:02.925Z,101067.97
2023-01-05T08:20:10.485Z,101070.94
2023-01-05T08:23:25.226Z,101054.72
2023-01-05T08:26:33.793Z,101084.59
2023-01-05T08:29:41.037Z,101084.09
2023-01-05T08:32:48.327Z,101076.16
2023-01-05T08:35:55.555Z,101087.63
2023-01-05T08:39:02.756Z,101094.16
2023-01-05T08:42:09.930Z,101089.16
2023-01-05T08:45:18.021Z,101096.25
2023-01-05T08:48:25.207Z,101087.94
2023-01-05T08:51:32.548Z,101099.44
2023-01-05T08:54:39.735Z,101100.34
2023-01-05T08:57:46.867Z,101111.31
2023-01-05T09:00:54.129Z,101112.34
2023-01-05T09:04:01.319Z,101106.34
2023-01-05T09:07:08.486Z,101082.22
2023-01-05T09:10:15.971Z,101112.13
2023-01-05T09:13:23.153Z,101105.22
2023-01-05T09:20:03.216Z,101129.88
2023-01-05T09:23:10.432Z,101128.78
2023-01-05T09:26:18.024Z,101116.06
2023-01-05T09:29:25.323Z,101113.66
2023-01-05T09:32:32.598Z,101142.63
2023-01-05T09:35:39.754Z,101156.09
2023-01-05T09:38:50.818Z,101124.13
2023-01-05T09:42:02.010Z,101148.94
2023-01-05T09:45:11.941Z,101164.41
2023-01-05T09:48:20.072Z,101138.09
2023-01-05T09:51:28.342Z,101168.66
2023-01-05T09:54:37.008Z,101171.78
2023-01-05T09:57:54.909Z,101134.44
2023-01-05T10:01:10.591Z,101161.88
2023-01-05T10:04:26.650Z,101197.41
2023-01-05T10:07:48.097Z,101192.00
2023-01-05T10:11:19.878Z,101178.06
2023-01-05T10:14:40.637Z,101200.72
2023-01-05T10:17:47.984Z,101167.50
2023-01-05T10:21:07.507Z,101190.28
2023-01-05T10:24:31.349Z,101148.59
2023-01-05T10:27:43.625Z,101179.69
2023-01-05T10:31:02.041Z,101204.22
2023-01-05T10:34:31.548Z,101202.50
2023-01-05T10:37:41.720Z,101216.69
2023-01-05T10:41:29.855Z,101216.47
2023-01-05T10:44:42.970Z,101221.53
2023-01-05T10:47:50.616Z,101218.97
2023-01-05T10:50:57.954Z,101216.84
2023-01-05T10:54:05.707Z,101210.72
2023-01-05T10:57:34.030Z,101218.69
2023-01-05T11:00:42.942Z,101203.44
2023-01-05T11:07:21.138Z,101228.75
2023-01-05T11:10:33.290Z,101226.03
2023-01-05T11:13:43.034Z,101225.94
2023-01-05T11:16:53.504Z,101229.41
2023-01-05T11:20:01.177Z,101200.53
2023-01-05T11:23:35.779Z,101223.16
2023-01-05T11:26:57.024Z,101224.22
2023-01-05T11:30:16.484Z,101224.28
2023-01-05T11:33:26.136Z,101224.47
2023-01-05T11:36:33.447Z,101182.94
2023-01-05T11:39:46.795Z,101224.09
2023-01-05T11:42:54.046Z,101231.59
2023-01-05T11:46:03.938Z,101209.59
2023-01-05T11:49:11.333Z,101210.97
2023-01-05T11:52:34.667Z,101230.13
2023-01-05T11:55:41.934Z,101238.88
2023-01-05T11:58:51.018Z,101228.69
2023-01-05T12:02:16.571Z,101223.38
2023-01-05T12:05:49.919Z,101223.34
2023-01-05T12:09:32.702Z,101225.06
2023-01-05T12:12:44.786Z,101226.50
2023-01-05T12:16:10.363Z,101215.97
2023-01-05T12:19:39.684Z,101226.69
2023-01-05T12:23:14.302Z,101233.44
2023-01-05T12:27:11.047Z,101238.53
2023-01-05T12:31:59.864Z,101243.00
2023-01-05T12:34:40.256Z,101236.94
2023-01-05T12:38:22.943Z,101256.38
2023-01-05T12:42:08.514Z,101243.09
2023-01-05T12:45:31.286Z,101250.69
2023-01-05T12:48:43.035Z,101250.75
2023-01-05T12:52:01.106Z,101251.34
2023-01-05T12:55:25.816Z,101217.25
2023-01-05T12:58:37.313Z,101234.50
2023-01-05T13:01:52.357Z,101255.69
2023-01-05T13:05:09.462Z,101249.50
2023-01-05T13:08:32.384Z,101224.59
2023-01-05T13:12:07.007Z,101261.13
2023-01-05T13:15:14.991Z,101259.31
2023-01-05T13:18:24.645Z,101247.72
2023-01-05T13:21:32.291Z,101248.72
2023-01-05T13:24:49.280Z,101256.16
2023-01-05T13:27:56.529Z,101258.25
2023-01-05T13:31:36.218Z,101262.47
2023-01-05T13:35:01.411Z,101269.84
2023-01-05T13:38:46.034Z,101264.06
2023-01-05T13:42:23.352Z,101251.13
2023-01-05T13:45:48.796Z,101260.19
2023-01-05T13:49:15.315Z,101278.09
2023-01-05T13:52:56.593Z,101284.69
2023-01-05T13:56:15.853Z,101271.94
2023-01-05T13:59:39.806Z,101284.00
2023-01-05T14:03:14.258Z,101258.25
2023-01-05T14:06:25.333Z,101291.25
2023-01-05T14:09:47.898Z,101293.06
2023-01-05T14:12:55.350Z,101288.13
2023-01-05T14:16:35.221Z,101296.50
2023-01-05T14:19:50.884Z,101306.50
2023-01-05T14:22:58.296Z,101299.41
2023-01-05T14:26:09.373Z,101264.03
2023-01-05T14:29:45.399Z,101300.50
2023-01-05T14:32:53.551Z,101288.63
2023-01-05T14:36:04.158Z,101287.16
2023-01-05T14:39:20.364Z,101313.31
2023-01-05T14:42:34.395Z,101311.75
2023-01-05T14:45:41.622Z,101277.13
2023-01-05T14:49:05.209Z,101309.72
2023-01-05T14:52:18.296Z,101304.25
2023-01-05T14:55:39.144Z,101311.47
2023-01-05T14:58:53.370Z,101309.34
2023-01-05T15:02:04.367Z,101293.50
2023-01-05T15:05:15.786Z,101310.06
2023-01-05T15:08:35.592Z,101313.19
2023-01-05T15:12:05.455Z,101315.81
2023-01-05T15:15:18.497Z,101317.03
2023-01-05T15:18:53.400Z,101320.44
2023-01-05T15:22:36.438Z,101318.00
2023-01-05T15:26:07.791Z,101318.72
2023-01-05T15:29:27.668Z,101326.19
2023-01-05T15:32:40.568Z,101316.91
2023-01-05T15:35:53.120Z,101312.38
2023-01-05T15:39:00.405Z,101312.59
2023-01-05T15:42:09.082Z,101313.22
2023-01-05T15:45:24.561Z,101304.06
2023-01-05T15:48:38.496Z,101305.38
2023-01-05T15:51:53.482Z,101306.63
2023-01-05T15:55:04.455Z,101312.31
2023-01-05T15:58:16.148Z,101322.25
2023-01-05T16:07:21.997Z,101318.22
2023-01-05T16:10:50.847Z,101303.28
2023-01-05T16:14:02.219Z,101312.38
2023-01-05T16:16:51.315Z,101315.63
2023-01-05T16:19:23.830Z,101315.63
2023-01-05T16:22:06.672Z,101314.06
2023-01-05T16:24:42.689Z,101314.44
2023-01-05T16:27:11.551Z,101305.59
2023-01-05T16:29:46.034Z,101318.44
2023-01-05T16:32:36.810Z,101316.38
2023-01-05T16:35:33.049Z,101321.91
2023-01-05T16:38:09.581Z,101322.63
2023-01-05T16:40:39.058Z,101319.97
2023-01-05T16:43:17.422Z,101328.16
2023-01-05T16:45:44.012Z,101309.03
2023-01-05T16:48:36.811Z,101317.63
2023-01-05T16:51:05.676Z,101313.63
2023-01-05T16:53:33.147Z,101298.75
2023-01-05T16:56:00.787Z,101290.16
2023-01-05T16:58:30.400Z,101311.56
2023-01-05T17:01:09.705Z,101313.63
2023-01-05T17:03:36.221Z,101313.78
2023-01-05T17:06:03.107Z,101293.34
2023-01-05T17:08:31.909Z,101322.88
2023-01-05T17:10:59.527Z,101320.16
2023-01-05T17:13:32.807Z,101327.38
2023-01-05T17:15:59.475Z,101291.84
2023-01-05T17:18:28.615Z,101321.22
2023-01-05T17:20:57.027Z,101311.69
2023-01-05T17:23:30.235Z,101323.19
2023-01-05T17:26:00.056Z,101306.75
2023-01-05T17:28:26.602Z,101324.91
2023-01-05T17:30:53.440Z,101298.03
2023-01-05T17:33:20.070Z,101308.47
2023-01-05T17:38:15.184Z,101307.53
2023-01-05T17:40:42.467Z,101300.31
2023-01-05T17:43:09.398Z,101271.44
2023-01-05T17:45:38.530Z,101292.03
2023-01-05T17:48:05.182Z,101284.16
2023-01-05T17:50:33.314Z,101289.41
2023-01-05T17:53:01.645Z,101297.94
2023-01-05T17:55:29.480Z,101294.63
2023-01-05T17:57:57.723Z,101250.56
2023-01-05T18:00:26.192Z,101297.19
2023-01-05T18:02:54.054Z,101294.66
2023-01-05T18:05:21.734Z,101275.28
2023-01-05T18:07:48.934Z,101287.94
2023-01-05T18:10:18.592Z,101266.16
2023-01-05T18:12:45.246Z,101239.34
2023-01-05T18:15:12.791Z,101284.16
2023-01-05T18:17:39.367Z,101287.06
2023-01-05T18:20:06.960Z,101293.22
2023-01-05T18:22:33.805Z,101286.22
2023-01-05T18:25:00.557Z,101261.69
2023-01-05T18:27:27.101Z,101287.03
2023-01-05T18:29:53.720Z,101234.84
2023-01-05T18:32:20.265Z,101256.88
2023-01-05T18:34:46.836Z,101234.75
2023-01-05T18:37:21.525Z,101263.94
2023-01-05T18:39:48.564Z,101281.69
2023-01-05T18:42:15.311Z,101282.59
2023-01-05T18:44:42.098Z,101244.03
2023-01-05T18:47:11.051Z,101275.75
2023-01-05T18:49:37.791Z,101269.16
2023-01-05T18:52:04.693Z,101263.91
2023-01-05T18:54:31.296Z,101275.16
2023-01-05T18:56:58.066Z,101282.47
2023-01-05T18:59:25.461Z,101266.38
2023-01-05T19:01:52.153Z,101268.94
2023-01-05T19:04:18.781Z,101275.31
2023-01-05T19:06:45.436Z,101226.22
2023-01-05T19:09:13.308Z,101263.56
2023-01-05T19:11:44.885Z,101223.06
2023-01-05T19:14:11.575Z,101241.84
2023-01-05T19:16:38.486Z,101252.59
2023-01-05T19:19:09.250Z,101247.66
2023-01-05T19:21:38.511Z,101252.44
2023-01-05T19:24:07.500Z,101242.81
2023-01-05T19:26:36.167Z,101243.44
2023-01-05T19:29:04.007Z,101256.44
2023-01-05T19:31:30.646Z,101233.66
2023-01-05T19:34:00.116Z,101232.88
2023-01-05T19:36:35.624Z,101224.25
2023-01-05T19:39:07.562Z,101246.56
2023-01-05T19:41:35.426Z,101234.69
2023-01-05T19:44:01.921Z,101250.47
2023-01-05T19:46:28.798Z,101223.88
2023-01-05T19:48:56.529Z,101236.44
2023-01-05T19:51:27.576Z,101241.53
2023-01-05T19:53:59.177Z,101245.34
2023-01-05T19:56:28.179Z,101243.16
2023-01-05T19:58:57.387Z,101242.75
2023-01-05T20:01:25.660Z,101214.97
2023-01-05T20:03:54.354Z,101242.91
2023-01-05T20:06:26.255Z,101237.56
2023-01-05T20:08:54.427Z,101225.94
2023-01-05T20:11:36.345Z,101228.13
2023-01-05T20:14:05.031Z,101222.38
2023-01-05T20:16:33.381Z,101223.31
2023-01-05T20:19:00.504Z,101235.94
2023-01-05T20:21:27.317Z,101227.88
2023-01-05T20:23:53.819Z,101230.03
2023-01-05T20:26:22.153Z,101232.44
2023-01-05T20:28:49.477Z,101205.72
2023-01-05T20:31:23.848Z,101221.69
2023-01-05T20:33:51.425Z,101205.28
2023-01-05T20:36:18.096Z,101215.44
2023-01-05T20:38:45.043Z,101192.13
2023-01-05T20:41:23.413Z,101202.00
2023-01-05T20:43:51.252Z,101223.13
2023-01-05T20:46:21.463Z,101225.44
2023-01-05T20:48:52.611Z,101180.88
2023-01-05T20:51:21.164Z,101213.66
2023-01-05T20:53:48.748Z,101223.22
2023-01-05T20:56:18.322Z,101211.13
2023-01-05T20:58:46.365Z,101214.41
2023-01-05T21:01:14.089Z,101227.00
2023-01-05T21:03:41.522Z,101218.13
2023-01-05T21:06:10.741Z,101196.28
2023-01-05T21:08:37.709Z,101212.53
2023-01-05T21:11:05.817Z,101215.72
2023-01-05T21:13:33.305Z,101192.34
2023-01-05T21:16:03.672Z,101210.44
2023-01-05T21:18:33.748Z,101210.16
2023-01-05T21:21:00.236Z,101217.25
2023-01-05T21:23:26.718Z,101203.53
2023-01-05T21:26:06.583Z,101207.28
2023-01-05T21:28:39.149Z,101214.66
2023-01-05T21:31:08.504Z,101198.66
2023-01-05T21:33:36.320Z,101213.47
2023-01-05T21:36:04.380Z,101166.59
2023-01-05T21:39:01.035Z,101207.66
2023-01-05T21:41:17.674Z,101193.94
2023-01-05T21:43:44.415Z,101194.88
2023-01-05T21:46:12.020Z,101154.91
2023-01-05T21:48:38.982Z,101197.75
2023-01-05T21:51:24.300Z,101181.88
2023-01-05T21:54:09.159Z,101200.88
2023-01-05T21:56:39.430Z,101199.59
2023-01-05T21:59:09.393Z,101194.06
2023-01-05T22:01:38.226Z,101171.25
2023-01-05T22:04:05.370Z,101169.94
2023-01-05T22:06:32.256Z,101176.69
2023-01-05T22:08:58.934Z,101181.47
2023-01-05T22:11:25.432Z,101134.97
2023-01-05T22:13:52.033Z,101172.13
2023-01-05T22:16:27.160Z,101187.66
2023-01-05T22:18:53.975Z,101171.56
2023-01-05T22:21:20.465Z,101173.66
2023-01-05T22:23:47.061Z,101154.72
2023-01-05T22:26:15.722Z,101168.00
2023-01-05T22:28:43.800Z,101167.47
2023-01-05T22:31:12.824Z,101123.56
2023-01-05T22:33:41.423Z,101172.91
2023-01-05T22:36:09.562Z,101151.84
2023-01-05T22:38:37.566Z,101168.38
2023-01-05T22:41:05.366Z,101161.88
2023-01-05T22:43:32.177Z,101168.81
2023-01-05T22:46:08.611Z,101151.63
2023-01-05T22:48:36.879Z,101175.72
2023-01-05T22:51:05.276Z,101191.00
2023-01-05T22:53:32.173Z,101183.34
2023-01-05T22:55:58.784Z,101147.34
2023-01-05T22:58:25.718Z,101179.56
2023-01-05T23:00:52.642Z,101139.97
2023-01-05T23:03:20.853Z,101167.84
2023-01-05T23:05:47.872Z,101163.84
2023-01-05T23:08:14.445Z,101149.03
2023-01-05T23:10:41.013Z,101187.72
2023-01-05T23:13:07.601Z,101174.22
2023-01-05T23:15:34.081Z,101166.94
2023-01-05T23:18:00.813Z,101159.59
2023-01-05T23:20:27.385Z,101160.84
2023-01-05T23:22:53.988Z,101165.78
2023-01-05T23:25:20.495Z,101164.41
2023-01-05T23:27:47.010Z,101126.81
2023-01-05T23:30:13.663Z,101156.84
2023-01-05T23:32:40.107Z,101157.53
2023-01-05T23:35:07.950Z,101155.72
2023-01-05T23:37:34.666Z,101156.81
2023-01-05T23:40:01.153Z,101150.41
2023-01-05T23:42:46.229Z,101148.59
2023-01-05T23:45:13.924Z,101144.03
2023-01-05T23:47:40.583Z,101146.44
2023-01-05T23:50:07.740Z,101138.06
2023-01-05T23:52:34.474Z,101132.81
2023-01-05T23:55:01.021Z,101134.94
2023-01-05T23:57:29.934Z,101133.53
2023-01-05T23:59:56.536Z,101120.13
